sensor_id;sensor_type;location;lat;lon;timestamp;temperature;humidity
9215;DHT22;4642;51.364;6.788;2023-08-06T00:00:10;15.30;99.90
9215;DHT22;4642;51.364;6.788;2023-08-06T00:02:36;15.20;99.90
9215;DHT22;4642;51.364;6.788;2023-08-06T00:05:01;15.20;99.90
9215;DHT22;4642;51.364;6.788;2023-08-06T00:07:28;15.20;99.90
9215;DHT22;4642;51.364;6.788;2023-08-06T00:09:53;15.20;99.90
9215;DHT22;4642;51.364;6.788;2023-08-06T00:12:19;15.20;99.90
9215;DHT22;4642;51.364;6.788;2023-08-06T00:14:45;15.20;99.90
9215;DHT22;4642;51.364;6.788;2023-08-06T00:17:11;15.20;99.90
9215;DHT22;4642;51.364;6.788;2023-08-06T00:19:36;15.20;99.90
9215;DHT22;4642;51.364;6.788;2023-08-06T00:22:02;15.20;99.90
9215;DHT22;4642;51.364;6.788;2023-08-06T00:24:27;15.20;99.90
9215;DHT22;4642;51.364;6.788;2023-08-06T00:26:53;15.20;99.90
9215;DHT22;4642;51.364;6.788;2023-08-06T00:29:19;15.20;99.90
9215;DHT22;4642;51.364;6.788;2023-08-06T00:31:44;15.20;99.90
9215;DHT22;4642;51.364;6.788;2023-08-06T00:34:10;15.20;99.90
9215;DHT22;4642;51.364;6.788;2023-08-06T00:36:35;15.10;99.90
9215;DHT22;4642;51.364;6.788;2023-08-06T00:39:01;15.10;99.90
9215;DHT22;4642;51.364;6.788;2023-08-06T00:41:27;15.10;99.90
9215;DHT22;4642;51.364;6.788;2023-08-06T00:43:52;15.10;99.90
9215;DHT22;4642;51.364;6.788;2023-08-06T00:46:18;15.00;99.90
9215;DHT22;4642;51.364;6.788;2023-08-06T00:48:44;15.10;99.90
9215;DHT22;4642;51.364;6.788;2023-08-06T00:51:10;15.00;99.90
9215;DHT22;4642;51.364;6.788;2023-08-06T00:53:37;15.00;99.90
9215;DHT22;4642;51.364;6.788;2023-08-06T00:56:03;15.00;99.90
9215;DHT22;4642;51.364;6.788;2023-08-06T00:58:29;15.00;99.90
9215;DHT22;4642;51.364;6.788;2023-08-06T01:00:54;15.00;99.90
9215;DHT22;4642;51.364;6.788;2023-08-06T01:03:20;15.00;99.90
9215;DHT22;4642;51.364;6.788;2023-08-06T01:05:46;15.00;99.90
9215;DHT22;4642;51.364;6.788;2023-08-06T01:08:38;15.00;99.90
9215;DHT22;4642;51.364;6.788;2023-08-06T01:11:18;15.00;99.90
9215;DHT22;4642;51.364;6.788;2023-08-06T01:13:48;14.90;99.90
9215;DHT22;4642;51.364;6.788;2023-08-06T01:16:18;14.90;99.90
9215;DHT22;4642;51.364;6.788;2023-08-06T01:18:44;15.00;99.90
9215;DHT22;4642;51.364;6.788;2023-08-06T01:21:15;15.10;99.90
9215;DHT22;4642;51.364;6.788;2023-08-06T01:23:41;15.00;99.90
9215;DHT22;4642;51.364;6.788;2023-08-06T01:28:51;14.90;99.90
9215;DHT22;4642;51.364;6.788;2023-08-06T01:31:27;15.00;99.90
9215;DHT22;4642;51.364;6.788;2023-08-06T01:33:56;15.00;99.90
9215;DHT22;4642;51.364;6.788;2023-08-06T01:36:23;15.00;99.90
9215;DHT22;4642;51.364;6.788;2023-08-06T01:38:53;15.00;99.90
9215;DHT22;4642;51.364;6.788;2023-08-06T01:41:19;15.00;99.90
9215;DHT22;4642;51.364;6.788;2023-08-06T01:43:45;15.00;99.90
9215;DHT22;4642;51.364;6.788;2023-08-06T01:46:10;15.00;99.90
9215;DHT22;4642;51.364;6.788;2023-08-06T01:48:36;15.00;99.90
9215;DHT22;4642;51.364;6.788;2023-08-06T01:51:04;15.00;99.90
9215;DHT22;4642;51.364;6.788;2023-08-06T01:53:30;15.00;99.90
9215;DHT22;4642;51.364;6.788;2023-08-06T01:55:57;15.00;99.90
9215;DHT22;4642;51.364;6.788;2023-08-06T01:58:22;15.00;99.90
9215;DHT22;4642;51.364;6.788;2023-08-06T02:00:48;15.00;99.90
9215;DHT22;4642;51.364;6.788;2023-08-06T02:03:13;15.00;99.90
9215;DHT22;4642;51.364;6.788;2023-08-06T02:05:39;15.00;99.90
9215;DHT22;4642;51.364;6.788;2023-08-06T02:08:05;15.00;99.90
9215;DHT22;4642;51.364;6.788;2023-08-06T02:10:31;15.00;99.90
9215;DHT22;4642;51.364;6.788;2023-08-06T02:12:56;15.00;99.90
9215;DHT22;4642;51.364;6.788;2023-08-06T02:15:22;15.00;99.90
9215;DHT22;4642;51.364;6.788;2023-08-06T02:17:47;15.00;99.90
9215;DHT22;4642;51.364;6.788;2023-08-06T02:20:13;14.90;99.90
9215;DHT22;4642;51.364;6.788;2023-08-06T02:22:38;15.00;99.90
9215;DHT22;4642;51.364;6.788;2023-08-06T02:25:04;15.00;99.90
9215;DHT22;4642;51.364;6.788;2023-08-06T02:27:30;15.00;99.90
9215;DHT22;4642;51.364;6.788;2023-08-06T02:29:55;15.00;99.90
9215;DHT22;4642;51.364;6.788;2023-08-06T02:32:21;14.90;99.90
9215;DHT22;4642;51.364;6.788;2023-08-06T02:34:47;15.00;99.90
9215;DHT22;4642;51.364;6.788;2023-08-06T02:37:12;15.00;99.90
9215;DHT22;4642;51.364;6.788;2023-08-06T02:39:38;15.00;99.90
9215;DHT22;4642;51.364;6.788;2023-08-06T02:42:06;15.00;99.90
9215;DHT22;4642;51.364;6.788;2023-08-06T02:44:32;15.10;99.90
9215;DHT22;4642;51.364;6.788;2023-08-06T02:46:59;15.00;99.90
9215;DHT22;4642;51.364;6.788;2023-08-06T02:49:24;15.00;99.90
9215;DHT22;4642;51.364;6.788;2023-08-06T02:51:50;14.90;99.90
9215;DHT22;4642;51.364;6.788;2023-08-06T02:54:15;15.00;99.90
9215;DHT22;4642;51.364;6.788;2023-08-06T02:56:43;15.00;99.90
9215;DHT22;4642;51.364;6.788;2023-08-06T02:59:10;15.00;99.90
9215;DHT22;4642;51.364;6.788;2023-08-06T03:01:36;15.00;99.90
9215;DHT22;4642;51.364;6.788;2023-08-06T03:04:02;15.00;99.90
9215;DHT22;4642;51.364;6.788;2023-08-06T03:06:27;15.00;99.90
9215;DHT22;4642;51.364;6.788;2023-08-06T03:08:53;15.00;99.90
9215;DHT22;4642;51.364;6.788;2023-08-06T03:11:18;15.00;99.90
9215;DHT22;4642;51.364;6.788;2023-08-06T03:13:44;15.00;99.90
9215;DHT22;4642;51.364;6.788;2023-08-06T03:16:09;15.00;99.90
9215;DHT22;4642;51.364;6.788;2023-08-06T03:18:35;15.00;99.90
9215;DHT22;4642;51.364;6.788;2023-08-06T03:21:00;15.00;99.90
9215;DHT22;4642;51.364;6.788;2023-08-06T03:23:26;15.00;99.90
9215;DHT22;4642;51.364;6.788;2023-08-06T03:25:51;15.00;99.90
9215;DHT22;4642;51.364;6.788;2023-08-06T03:28:17;15.00;99.90
9215;DHT22;4642;51.364;6.788;2023-08-06T03:30:43;15.10;99.90
9215;DHT22;4642;51.364;6.788;2023-08-06T03:33:08;14.90;99.90
9215;DHT22;4642;51.364;6.788;2023-08-06T03:35:34;15.00;99.90
9215;DHT22;4642;51.364;6.788;2023-08-06T03:37:59;14.90;99.90
9215;DHT22;4642;51.364;6.788;2023-08-06T03:40:25;15.00;99.90
9215;DHT22;4642;51.364;6.788;2023-08-06T03:42:50;15.00;99.90
9215;DHT22;4642;51.364;6.788;2023-08-06T03:45:16;15.00;99.90
9215;DHT22;4642;51.364;6.788;2023-08-06T03:47:41;15.00;99.90
9215;DHT22;4642;51.364;6.788;2023-08-06T03:50:07;15.00;99.90
9215;DHT22;4642;51.364;6.788;2023-08-06T03:52:33;15.00;99.90
9215;DHT22;4642;51.364;6.788;2023-08-06T03:54:58;15.00;99.90
9215;DHT22;4642;51.364;6.788;2023-08-06T03:57:24;15.00;99.90
9215;DHT22;4642;51.364;6.788;2023-08-06T03:59:49;15.00;99.90
9215;DHT22;4642;51.364;6.788;2023-08-06T04:02:15;15.00;99.90
9215;DHT22;4642;51.364;6.788;2023-08-06T04:04:40;15.00;99.90
9215;DHT22;4642;51.364;6.788;2023-08-06T04:07:06;15.20;99.90
9215;DHT22;4642;51.364;6.788;2023-08-06T04:09:31;15.00;99.90
9215;DHT22;4642;51.364;6.788;2023-08-06T04:11:57;15.00;99.90
9215;DHT22;4642;51.364;6.788;2023-08-06T04:14:24;15.00;99.90
9215;DHT22;4642;51.364;6.788;2023-08-06T04:16:51;15.00;99.90
9215;DHT22;4642;51.364;6.788;2023-08-06T04:19:16;15.00;99.90
9215;DHT22;4642;51.364;6.788;2023-08-06T04:21:42;15.00;99.90
9215;DHT22;4642;51.364;6.788;2023-08-06T04:24:07;15.00;99.90
9215;DHT22;4642;51.364;6.788;2023-08-06T04:26:33;15.00;99.90
9215;DHT22;4642;51.364;6.788;2023-08-06T04:28:58;15.00;99.90
9215;DHT22;4642;51.364;6.788;2023-08-06T04:31:24;15.00;99.90
9215;DHT22;4642;51.364;6.788;2023-08-06T04:33:50;15.00;99.90
9215;DHT22;4642;51.364;6.788;2023-08-06T04:36:15;15.00;99.90
9215;DHT22;4642;51.364;6.788;2023-08-06T04:38:41;15.00;99.90
9215;DHT22;4642;51.364;6.788;2023-08-06T04:41:10;15.00;99.90
9215;DHT22;4642;51.364;6.788;2023-08-06T04:43:36;15.10;99.90
9215;DHT22;4642;51.364;6.788;2023-08-06T04:46:02;15.00;99.90
9215;DHT22;4642;51.364;6.788;2023-08-06T04:48:27;15.10;99.90
9215;DHT22;4642;51.364;6.788;2023-08-06T04:50:53;15.10;99.90
9215;DHT22;4642;51.364;6.788;2023-08-06T04:53:18;15.00;99.90
9215;DHT22;4642;51.364;6.788;2023-08-06T04:55:44;15.10;99.90
9215;DHT22;4642;51.364;6.788;2023-08-06T04:58:10;15.00;99.90
9215;DHT22;4642;51.364;6.788;2023-08-06T05:00:35;15.10;99.90
9215;DHT22;4642;51.364;6.788;2023-08-06T05:03:01;15.10;99.90
9215;DHT22;4642;51.364;6.788;2023-08-06T05:05:27;15.10;99.90
9215;DHT22;4642;51.364;6.788;2023-08-06T05:07:55;15.10;99.90
9215;DHT22;4642;51.364;6.788;2023-08-06T05:10:21;15.10;99.90
9215;DHT22;4642;51.364;6.788;2023-08-06T05:12:47;15.10;99.90
9215;DHT22;4642;51.364;6.788;2023-08-06T05:15:12;15.10;99.90
9215;DHT22;4642;51.364;6.788;2023-08-06T05:17:38;15.10;99.90
9215;DHT22;4642;51.364;6.788;2023-08-06T05:20:04;15.00;99.90
9215;DHT22;4642;51.364;6.788;2023-08-06T05:22:29;15.10;99.90
9215;DHT22;4642;51.364;6.788;2023-08-06T05:24:55;15.10;99.90
9215;DHT22;4642;51.364;6.788;2023-08-06T05:27:20;15.10;99.90
9215;DHT22;4642;51.364;6.788;2023-08-06T05:29:48;15.10;99.90
9215;DHT22;4642;51.364;6.788;2023-08-06T05:32:13;15.10;99.90
9215;DHT22;4642;51.364;6.788;2023-08-06T05:34:39;15.20;99.90
9215;DHT22;4642;51.364;6.788;2023-08-06T05:37:05;15.10;99.90
9215;DHT22;4642;51.364;6.788;2023-08-06T05:39:30;15.10;99.90
9215;DHT22;4642;51.364;6.788;2023-08-06T05:41:56;15.30;99.90
9215;DHT22;4642;51.364;6.788;2023-08-06T05:44:23;15.10;99.90
9215;DHT22;4642;51.364;6.788;2023-08-06T05:46:49;15.10;99.90
9215;DHT22;4642;51.364;6.788;2023-08-06T05:49:15;15.00;99.90
9215;DHT22;4642;51.364;6.788;2023-08-06T05:51:41;15.00;99.90
9215;DHT22;4642;51.364;6.788;2023-08-06T05:54:06;15.00;99.90
9215;DHT22;4642;51.364;6.788;2023-08-06T05:56:32;15.10;99.90
9215;DHT22;4642;51.364;6.788;2023-08-06T05:58:57;15.00;99.90
9215;DHT22;4642;51.364;6.788;2023-08-06T06:01:23;15.00;99.90
9215;DHT22;4642;51.364;6.788;2023-08-06T06:03:49;15.00;99.90
9215;DHT22;4642;51.364;6.788;2023-08-06T06:06:14;15.10;99.90
9215;DHT22;4642;51.364;6.788;2023-08-06T06:08:41;15.10;99.90
9215;DHT22;4642;51.364;6.788;2023-08-06T06:11:06;15.10;99.90
9215;DHT22;4642;51.364;6.788;2023-08-06T06:13:32;15.10;99.90
9215;DHT22;4642;51.364;6.788;2023-08-06T06:15:57;15.00;99.90
9215;DHT22;4642;51.364;6.788;2023-08-06T06:18:23;15.00;99.90
9215;DHT22;4642;51.364;6.788;2023-08-06T06:20:48;15.10;99.90
9215;DHT22;4642;51.364;6.788;2023-08-06T06:23:14;15.10;99.90
9215;DHT22;4642;51.364;6.788;2023-08-06T06:25:44;15.10;99.90
9215;DHT22;4642;51.364;6.788;2023-08-06T06:28:12;15.10;99.90
9215;DHT22;4642;51.364;6.788;2023-08-06T06:30:37;15.20;99.90
9215;DHT22;4642;51.364;6.788;2023-08-06T06:33:03;15.20;99.90
9215;DHT22;4642;51.364;6.788;2023-08-06T06:35:28;15.30;99.90
9215;DHT22;4642;51.364;6.788;2023-08-06T06:37:54;15.30;99.90
9215;DHT22;4642;51.364;6.788;2023-08-06T06:40:19;15.40;99.90
9215;DHT22;4642;51.364;6.788;2023-08-06T06:42:45;15.40;99.90
9215;DHT22;4642;51.364;6.788;2023-08-06T06:45:10;15.50;99.90
9215;DHT22;4642;51.364;6.788;2023-08-06T06:47:36;15.40;99.90
9215;DHT22;4642;51.364;6.788;2023-08-06T06:50:02;15.50;99.90
9215;DHT22;4642;51.364;6.788;2023-08-06T06:52:27;15.60;99.90
9215;DHT22;4642;51.364;6.788;2023-08-06T06:54:53;15.60;99.90
9215;DHT22;4642;51.364;6.788;2023-08-06T06:57:18;15.70;99.90
9215;DHT22;4642;51.364;6.788;2023-08-06T06:59:44;15.70;99.90
9215;DHT22;4642;51.364;6.788;2023-08-06T07:02:09;15.70;99.90
9215;DHT22;4642;51.364;6.788;2023-08-06T07:04:35;15.80;99.90
9215;DHT22;4642;51.364;6.788;2023-08-06T07:07:00;15.90;99.90
9215;DHT22;4642;51.364;6.788;2023-08-06T07:09:26;15.90;99.90
9215;DHT22;4642;51.364;6.788;2023-08-06T07:11:52;16.00;99.90
9215;DHT22;4642;51.364;6.788;2023-08-06T07:14:17;16.10;99.90
9215;DHT22;4642;51.364;6.788;2023-08-06T07:16:43;16.20;99.90
9215;DHT22;4642;51.364;6.788;2023-08-06T07:19:09;16.30;99.90
9215;DHT22;4642;51.364;6.788;2023-08-06T07:21:34;16.40;99.90
9215;DHT22;4642;51.364;6.788;2023-08-06T07:24:00;16.40;99.90
9215;DHT22;4642;51.364;6.788;2023-08-06T07:26:25;16.50;99.90
9215;DHT22;4642;51.364;6.788;2023-08-06T07:28:51;16.50;99.90
9215;DHT22;4642;51.364;6.788;2023-08-06T07:31:16;16.80;99.90
9215;DHT22;4642;51.364;6.788;2023-08-06T07:33:42;16.80;99.90
9215;DHT22;4642;51.364;6.788;2023-08-06T07:36:12;16.90;99.90
9215;DHT22;4642;51.364;6.788;2023-08-06T07:38:37;16.90;99.90
9215;DHT22;4642;51.364;6.788;2023-08-06T07:41:03;16.90;99.90
9215;DHT22;4642;51.364;6.788;2023-08-06T07:43:29;16.90;99.90
9215;DHT22;4642;51.364;6.788;2023-08-06T07:45:58;16.90;99.90
9215;DHT22;4642;51.364;6.788;2023-08-06T07:48:24;16.90;99.90
9215;DHT22;4642;51.364;6.788;2023-08-06T07:50:52;16.90;99.90
9215;DHT22;4642;51.364;6.788;2023-08-06T07:53:19;16.90;99.90
9215;DHT22;4642;51.364;6.788;2023-08-06T07:55:49;17.00;99.90
9215;DHT22;4642;51.364;6.788;2023-08-06T07:58:14;17.20;99.90
9215;DHT22;4642;51.364;6.788;2023-08-06T08:00:40;17.20;99.90
9215;DHT22;4642;51.364;6.788;2023-08-06T08:03:07;17.20;99.90
9215;DHT22;4642;51.364;6.788;2023-08-06T08:05:33;17.30;99.90
9215;DHT22;4642;51.364;6.788;2023-08-06T08:07:58;17.30;99.90
9215;DHT22;4642;51.364;6.788;2023-08-06T08:10:24;17.30;99.90
9215;DHT22;4642;51.364;6.788;2023-08-06T08:12:49;17.20;99.90
9215;DHT22;4642;51.364;6.788;2023-08-06T08:15:15;17.30;99.90
9215;DHT22;4642;51.364;6.788;2023-08-06T08:17:41;17.30;99.90
9215;DHT22;4642;51.364;6.788;2023-08-06T08:20:07;17.30;99.90
9215;DHT22;4642;51.364;6.788;2023-08-06T08:22:32;17.30;99.90
9215;DHT22;4642;51.364;6.788;2023-08-06T08:24:58;17.30;99.90
9215;DHT22;4642;51.364;6.788;2023-08-06T08:27:23;17.30;99.90
9215;DHT22;4642;51.364;6.788;2023-08-06T08:29:49;17.30;99.90
9215;DHT22;4642;51.364;6.788;2023-08-06T08:32:14;17.40;99.90
9215;DHT22;4642;51.364;6.788;2023-08-06T08:34:40;17.30;99.90
9215;DHT22;4642;51.364;6.788;2023-08-06T08:37:05;17.30;99.90
9215;DHT22;4642;51.364;6.788;2023-08-06T08:39:31;17.40;99.90
9215;DHT22;4642;51.364;6.788;2023-08-06T08:41:57;17.30;99.90
9215;DHT22;4642;51.364;6.788;2023-08-06T08:44:22;17.40;99.90
9215;DHT22;4642;51.364;6.788;2023-08-06T08:46:53;17.30;99.90
9215;DHT22;4642;51.364;6.788;2023-08-06T08:49:21;17.30;99.90
9215;DHT22;4642;51.364;6.788;2023-08-06T08:51:49;17.30;99.90
9215;DHT22;4642;51.364;6.788;2023-08-06T08:54:16;17.40;99.90
9215;DHT22;4642;51.364;6.788;2023-08-06T08:56:43;17.40;99.90
9215;DHT22;4642;51.364;6.788;2023-08-06T08:59:10;17.50;99.90
9215;DHT22;4642;51.364;6.788;2023-08-06T09:01:37;17.50;99.90
9215;DHT22;4642;51.364;6.788;2023-08-06T09:04:04;17.60;99.90
9215;DHT22;4642;51.364;6.788;2023-08-06T09:06:33;17.50;99.90
9215;DHT22;4642;51.364;6.788;2023-08-06T09:09:08;17.60;99.90
9215;DHT22;4642;51.364;6.788;2023-08-06T09:11:46;17.70;99.90
9215;DHT22;4642;51.364;6.788;2023-08-06T09:14:14;17.60;99.90
9215;DHT22;4642;51.364;6.788;2023-08-06T09:16:40;17.60;99.90
9215;DHT22;4642;51.364;6.788;2023-08-06T09:19:13;17.60;99.90
9215;DHT22;4642;51.364;6.788;2023-08-06T09:21:41;17.60;99.90
9215;DHT22;4642;51.364;6.788;2023-08-06T09:24:08;17.70;99.90
9215;DHT22;4642;51.364;6.788;2023-08-06T09:26:34;17.70;99.90
9215;DHT22;4642;51.364;6.788;2023-08-06T09:29:00;17.70;99.90
9215;DHT22;4642;51.364;6.788;2023-08-06T09:31:33;17.70;99.90
9215;DHT22;4642;51.364;6.788;2023-08-06T09:34:00;17.80;99.90
9215;DHT22;4642;51.364;6.788;2023-08-06T09:36:27;17.70;99.90
9215;DHT22;4642;51.364;6.788;2023-08-06T09:38:52;17.70;99.90
9215;DHT22;4642;51.364;6.788;2023-08-06T09:41:27;17.70;99.90
9215;DHT22;4642;51.364;6.788;2023-08-06T09:43:56;17.80;99.90
9215;DHT22;4642;51.364;6.788;2023-08-06T09:46:21;17.80;99.90
9215;DHT22;4642;51.364;6.788;2023-08-06T09:48:47;17.70;99.90
9215;DHT22;4642;51.364;6.788;2023-08-06T09:51:13;17.80;99.90
9215;DHT22;4642;51.364;6.788;2023-08-06T09:53:40;17.80;99.90
9215;DHT22;4642;51.364;6.788;2023-08-06T09:56:06;17.80;99.90
9215;DHT22;4642;51.364;6.788;2023-08-06T09:58:32;17.80;99.90
9215;DHT22;4642;51.364;6.788;2023-08-06T10:00:59;17.70;99.90
9215;DHT22;4642;51.364;6.788;2023-08-06T10:03:25;17.70;99.90
9215;DHT22;4642;51.364;6.788;2023-08-06T10:05:53;17.70;99.90
9215;DHT22;4642;51.364;6.788;2023-08-06T10:08:20;17.70;99.90
9215;DHT22;4642;51.364;6.788;2023-08-06T10:10:46;17.70;99.90
9215;DHT22;4642;51.364;6.788;2023-08-06T10:13:13;17.70;99.90
9215;DHT22;4642;51.364;6.788;2023-08-06T10:15:39;17.70;99.90
9215;DHT22;4642;51.364;6.788;2023-08-06T10:18:06;17.70;99.90
9215;DHT22;4642;51.364;6.788;2023-08-06T10:20:35;17.70;99.90
9215;DHT22;4642;51.364;6.788;2023-08-06T10:25:30;17.60;99.90
9215;DHT22;4642;51.364;6.788;2023-08-06T10:27:57;17.50;99.90
9215;DHT22;4642;51.364;6.788;2023-08-06T10:30:30;17.40;99.90
9215;DHT22;4642;51.364;6.788;2023-08-06T10:33:01;17.30;99.90
9215;DHT22;4642;51.364;6.788;2023-08-06T10:35:47;17.20;99.90
9215;DHT22;4642;51.364;6.788;2023-08-06T10:38:18;17.00;99.90
9215;DHT22;4642;51.364;6.788;2023-08-06T10:41:01;17.00;99.90
9215;DHT22;4642;51.364;6.788;2023-08-06T10:45:58;16.70;99.90
9215;DHT22;4642;51.364;6.788;2023-08-06T10:48:35;16.60;99.90
9215;DHT22;4642;51.364;6.788;2023-08-06T10:51:02;16.50;99.90
9215;DHT22;4642;51.364;6.788;2023-08-06T10:53:28;16.30;99.90
9215;DHT22;4642;51.364;6.788;2023-08-06T10:55:53;16.00;99.90
9215;DHT22;4642;51.364;6.788;2023-08-06T10:58:19;15.90;99.90
9215;DHT22;4642;51.364;6.788;2023-08-06T11:00:45;15.90;99.90
9215;DHT22;4642;51.364;6.788;2023-08-06T11:03:11;15.90;99.90
9215;DHT22;4642;51.364;6.788;2023-08-06T11:05:37;15.70;99.90
9215;DHT22;4642;51.364;6.788;2023-08-06T11:08:02;15.60;99.90
9215;DHT22;4642;51.364;6.788;2023-08-06T11:10:28;15.50;99.90
9215;DHT22;4642;51.364;6.788;2023-08-06T11:12:54;15.40;99.90
9215;DHT22;4642;51.364;6.788;2023-08-06T11:15:20;15.40;99.90
9215;DHT22;4642;51.364;6.788;2023-08-06T11:17:46;15.40;99.90
9215;DHT22;4642;51.364;6.788;2023-08-06T11:20:12;15.40;99.90
9215;DHT22;4642;51.364;6.788;2023-08-06T11:22:38;15.30;99.90
9215;DHT22;4642;51.364;6.788;2023-08-06T11:25:05;15.20;99.90
9215;DHT22;4642;51.364;6.788;2023-08-06T11:27:31;15.20;99.90
9215;DHT22;4642;51.364;6.788;2023-08-06T11:29:57;15.20;99.90
9215;DHT22;4642;51.364;6.788;2023-08-06T11:32:23;15.10;99.90
9215;DHT22;4642;51.364;6.788;2023-08-06T11:34:48;15.10;99.90
9215;DHT22;4642;51.364;6.788;2023-08-06T11:37:14;15.00;99.90
9215;DHT22;4642;51.364;6.788;2023-08-06T11:39:46;15.10;99.90
9215;DHT22;4642;51.364;6.788;2023-08-06T11:42:12;15.00;99.90
9215;DHT22;4642;51.364;6.788;2023-08-06T11:44:37;15.10;99.90
9215;DHT22;4642;51.364;6.788;2023-08-06T11:47:04;15.10;99.90
9215;DHT22;4642;51.364;6.788;2023-08-06T11:49:46;15.00;99.90
9215;DHT22;4642;51.364;6.788;2023-08-06T11:54:45;15.00;99.90
9215;DHT22;4642;51.364;6.788;2023-08-06T11:57:11;15.00;99.90
9215;DHT22;4642;51.364;6.788;2023-08-06T11:59:38;15.00;99.90
9215;DHT22;4642;51.364;6.788;2023-08-06T12:02:05;15.00;99.90
9215;DHT22;4642;51.364;6.788;2023-08-06T12:05:13;15.00;99.90
9215;DHT22;4642;51.364;6.788;2023-08-06T12:07:41;15.10;99.90
9215;DHT22;4642;51.364;6.788;2023-08-06T12:10:07;15.00;99.90
9215;DHT22;4642;51.364;6.788;2023-08-06T12:12:34;14.90;99.90
9215;DHT22;4642;51.364;6.788;2023-08-06T12:15:00;15.00;99.90
9215;DHT22;4642;51.364;6.788;2023-08-06T12:17:26;15.00;99.90
9215;DHT22;4642;51.364;6.788;2023-08-06T12:19:51;14.90;99.90
9215;DHT22;4642;51.364;6.788;2023-08-06T12:22:17;14.90;99.90
9215;DHT22;4642;51.364;6.788;2023-08-06T12:24:44;14.90;99.90
9215;DHT22;4642;51.364;6.788;2023-08-06T12:27:11;15.00;99.90
9215;DHT22;4642;51.364;6.788;2023-08-06T12:29:41;15.00;99.90
9215;DHT22;4642;51.364;6.788;2023-08-06T12:32:07;15.00;99.90
9215;DHT22;4642;51.364;6.788;2023-08-06T12:34:33;15.00;99.90
9215;DHT22;4642;51.364;6.788;2023-08-06T12:36:58;15.00;99.90
9215;DHT22;4642;51.364;6.788;2023-08-06T12:39:24;15.00;99.90
9215;DHT22;4642;51.364;6.788;2023-08-06T12:41:49;15.00;99.90
9215;DHT22;4642;51.364;6.788;2023-08-06T12:44:15;15.10;99.90
9215;DHT22;4642;51.364;6.788;2023-08-06T12:46:41;15.10;99.90
9215;DHT22;4642;51.364;6.788;2023-08-06T12:49:06;15.10;99.90
9215;DHT22;4642;51.364;6.788;2023-08-06T12:51:32;15.10;99.90
9215;DHT22;4642;51.364;6.788;2023-08-06T12:53:59;15.20;99.90
9215;DHT22;4642;51.364;6.788;2023-08-06T12:56:25;15.10;99.90
9215;DHT22;4642;51.364;6.788;2023-08-06T12:58:50;15.10;99.90
9215;DHT22;4642;51.364;6.788;2023-08-06T13:01:16;15.10;99.90
9215;DHT22;4642;51.364;6.788;2023-08-06T13:03:41;15.20;99.90
9215;DHT22;4642;51.364;6.788;2023-08-06T13:06:07;15.20;99.90
9215;DHT22;4642;51.364;6.788;2023-08-06T13:08:35;15.20;99.90
9215;DHT22;4642;51.364;6.788;2023-08-06T13:11:01;15.20;99.90
9215;DHT22;4642;51.364;6.788;2023-08-06T13:13:26;15.20;99.90
9215;DHT22;4642;51.364;6.788;2023-08-06T13:15:52;15.20;99.90
9215;DHT22;4642;51.364;6.788;2023-08-06T13:18:18;15.20;99.90
9215;DHT22;4642;51.364;6.788;2023-08-06T13:20:44;15.30;99.90
9215;DHT22;4642;51.364;6.788;2023-08-06T13:23:09;15.20;99.90
9215;DHT22;4642;51.364;6.788;2023-08-06T13:25:35;15.20;99.90
9215;DHT22;4642;51.364;6.788;2023-08-06T13:28:05;15.30;99.90
9215;DHT22;4642;51.364;6.788;2023-08-06T13:30:31;15.20;99.90
9215;DHT22;4642;51.364;6.788;2023-08-06T13:32:57;15.10;99.90
9215;DHT22;4642;51.364;6.788;2023-08-06T13:35:23;15.20;99.90
9215;DHT22;4642;51.364;6.788;2023-08-06T13:37:49;15.30;99.90
9215;DHT22;4642;51.364;6.788;2023-08-06T13:40:15;15.20;99.90
9215;DHT22;4642;51.364;6.788;2023-08-06T13:42:40;15.30;99.90
9215;DHT22;4642;51.364;6.788;2023-08-06T13:45:07;15.30;99.90
9215;DHT22;4642;51.364;6.788;2023-08-06T13:47:32;15.30;99.90
9215;DHT22;4642;51.364;6.788;2023-08-06T13:49:58;15.40;99.90
9215;DHT22;4642;51.364;6.788;2023-08-06T13:52:26;15.40;99.90
9215;DHT22;4642;51.364;6.788;2023-08-06T13:54:51;15.50;99.90
9215;DHT22;4642;51.364;6.788;2023-08-06T13:57:17;15.40;99.90
9215;DHT22;4642;51.364;6.788;2023-08-06T13:59:43;15.40;99.90
9215;DHT22;4642;51.364;6.788;2023-08-06T14:02:09;15.40;99.90
9215;DHT22;4642;51.364;6.788;2023-08-06T14:04:35;15.40;99.90
9215;DHT22;4642;51.364;6.788;2023-08-06T14:07:00;15.40;99.90
9215;DHT22;4642;51.364;6.788;2023-08-06T14:09:26;15.40;99.90
9215;DHT22;4642;51.364;6.788;2023-08-06T14:11:51;15.40;99.90
9215;DHT22;4642;51.364;6.788;2023-08-06T14:14:17;15.40;99.90
9215;DHT22;4642;51.364;6.788;2023-08-06T14:16:42;15.40;99.90
9215;DHT22;4642;51.364;6.788;2023-08-06T14:19:08;15.40;99.90
9215;DHT22;4642;51.364;6.788;2023-08-06T14:21:34;15.30;99.90
9215;DHT22;4642;51.364;6.788;2023-08-06T14:23:59;15.40;99.90
9215;DHT22;4642;51.364;6.788;2023-08-06T14:26:25;15.40;99.90
9215;DHT22;4642;51.364;6.788;2023-08-06T14:28:50;15.40;99.90
9215;DHT22;4642;51.364;6.788;2023-08-06T14:31:19;15.40;99.90
9215;DHT22;4642;51.364;6.788;2023-08-06T14:33:45;15.50;99.90
9215;DHT22;4642;51.364;6.788;2023-08-06T14:36:11;15.50;99.90
9215;DHT22;4642;51.364;6.788;2023-08-06T14:38:36;15.50;99.90
9215;DHT22;4642;51.364;6.788;2023-08-06T14:41:02;15.50;99.90
9215;DHT22;4642;51.364;6.788;2023-08-06T14:43:28;15.60;99.90
9215;DHT22;4642;51.364;6.788;2023-08-06T14:45:53;15.60;99.90
9215;DHT22;4642;51.364;6.788;2023-08-06T14:48:19;15.60;99.90
9215;DHT22;4642;51.364;6.788;2023-08-06T14:50:44;15.70;99.90
9215;DHT22;4642;51.364;6.788;2023-08-06T14:53:10;15.80;99.90
9215;DHT22;4642;51.364;6.788;2023-08-06T14:55:37;15.80;99.90
9215;DHT22;4642;51.364;6.788;2023-08-06T14:58:02;16.00;99.90
9215;DHT22;4642;51.364;6.788;2023-08-06T15:00:28;15.90;99.90
9215;DHT22;4642;51.364;6.788;2023-08-06T15:02:54;16.00;99.90
9215;DHT22;4642;51.364;6.788;2023-08-06T15:05:19;16.00;99.90
9215;DHT22;4642;51.364;6.788;2023-08-06T15:07:45;16.10;99.90
9215;DHT22;4642;51.364;6.788;2023-08-06T15:10:10;16.20;99.90
9215;DHT22;4642;51.364;6.788;2023-08-06T15:12:36;16.20;99.90
9215;DHT22;4642;51.364;6.788;2023-08-06T15:15:02;16.30;99.90
9215;DHT22;4642;51.364;6.788;2023-08-06T15:17:27;16.30;99.90
9215;DHT22;4642;51.364;6.788;2023-08-06T15:19:58;16.30;99.90
9215;DHT22;4642;51.364;6.788;2023-08-06T15:22:27;16.30;99.90
9215;DHT22;4642;51.364;6.788;2023-08-06T15:24:52;16.30;99.90
9215;DHT22;4642;51.364;6.788;2023-08-06T15:27:18;16.40;99.90
9215;DHT22;4642;51.364;6.788;2023-08-06T15:29:44;16.40;99.90
9215;DHT22;4642;51.364;6.788;2023-08-06T15:32:10;16.40;99.90
9215;DHT22;4642;51.364;6.788;2023-08-06T15:34:35;16.40;99.90
9215;DHT22;4642;51.364;6.788;2023-08-06T15:37:01;16.40;99.90
9215;DHT22;4642;51.364;6.788;2023-08-06T15:39:26;16.40;99.90
9215;DHT22;4642;51.364;6.788;2023-08-06T15:41:52;16.30;99.90
9215;DHT22;4642;51.364;6.788;2023-08-06T15:44:17;16.30;99.90
9215;DHT22;4642;51.364;6.788;2023-08-06T15:46:43;16.30;99.90
9215;DHT22;4642;51.364;6.788;2023-08-06T15:49:09;16.30;99.90
9215;DHT22;4642;51.364;6.788;2023-08-06T15:51:34;16.20;99.90
9215;DHT22;4642;51.364;6.788;2023-08-06T15:54:01;16.10;99.90
9215;DHT22;4642;51.364;6.788;2023-08-06T15:56:26;16.10;99.90
9215;DHT22;4642;51.364;6.788;2023-08-06T15:58:52;16.10;99.90
9215;DHT22;4642;51.364;6.788;2023-08-06T16:01:18;16.30;99.90
9215;DHT22;4642;51.364;6.788;2023-08-06T16:03:44;16.20;99.90
9215;DHT22;4642;51.364;6.788;2023-08-06T16:06:10;16.30;99.90